Aérodrome :
LOGIN :

S'inscrire | Disclaimer

   EN    FR    IT 

 










Légende :    VFR   VFR Marginal   IFR   IFR Intensif   IFR Très Intensif
Visi : 
Plafond : 
>= 8 km
>= 3000ft
5 à 8 km
1000 à 3000 ft
1500m à 5 km
500 à 1000 ft
800 à 1500m
200 à 500 ft
< 800m
< 200 ft
Symboles :   Orages  Brouillard  Fortes neiges  Fortes précipitations  Vent > 20 kt
SIGMETs :   Divers  Orages  Givrage  Turbulence  Onde Orograph.  Cendres Volcan.






- Altitude de l'aérodrome : 290 ft
- Code IATA : LAI


LFRO - Lannion

DERNIER METAR :
  • 290330Z AUTO 05014G24KT 010V090 9999 SCT033 OVC039 07/00 Q1030

METARs EXPIRÉS :
  • 290300Z AUTO 05012G23KT 360V090 9999 BKN033 OVC039 07/01 Q1030
  • 290230Z AUTO 05012KT 350V100 9999 BKN031 OVC038 07/01 Q1030
  • 290200Z AUTO 05012KT 010V100 9999 BKN035 OVC042 07/01 Q1030
  • 290130Z AUTO 04013G28KT 340V090 9999 BKN030 OVC037 07/01 Q1030
  • 290100Z AUTO 05011G31KT 350V090 9999 BKN030 OVC040 08/01 Q1030

Prévision TAF périmée.



MET'MAP, la Météo Aéronautique d'un coup d'oeil ! - Copyright ORBIFLY Décembre 2007 - Disclaimer

ORBIFLY MET'MAP TEAM :

Programmation & Développement : Alexandra Zaïnal
Sur une idée originale de : Baudouin d'Aumeries
Assistance à la programmation : Marc-Olivier Méhu
Soutien technique & logistique : Manuel Goepfert

Contact : metmap@orbifly.com




SOURCES & CREDITS :

   NOAA